CheckWX is a tool to help pilots better visualize weather data.  It is not intended as a substitute for an official pre-flight weather briefing.

07:18:02 UTC

SARF METAR
Formosa Airport
Formosa, Argentina
Current

18 mins ago

SARF 180700Z 20006KT 9999 BKN015 OVC100 17/11 Q1010
Observed
Sep-18 @ 07:00 UTC
Wind
  • 200° at 6 KTS
Visibility
10,000+ meters
Flight Rules
MVFR
Cloud Levels
  • Broken at 1,500' AGL
  • Overcast at 10,000' AGL
Temperature
17°C / 63°F
Dewpoint
11°C / 52°F
Humidity
68%
Altimeter
29.82" Hg
Pressure
1009.92 hPa
Previous

1 hour ago

SARF 180600Z 25005KT 9999 BKN015 OVC100 17/11 Q1010
Observed
Sep-18 @ 06:00 UTC
Wind
  • 250° at 5 KTS
Visibility
10,000+ meters
Flight Rules
MVFR
Cloud Levels
  • Broken at 1,500' AGL
  • Overcast at 10,000' AGL
Temperature
17°C / 63°F
Dewpoint
11°C / 52°F
Humidity
68%
Altimeter
29.82" Hg
Pressure
1009.92 hPa
Previous

2 hours ago

SARF 180500Z 27003KT 9999 BKN015 FEW050CB OVC100 17/13 Q1010
Observed
Sep-18 @ 05:00 UTC
Wind
  • 270° at 3 KTS
Visibility
10,000+ meters
Flight Rules
MVFR
Cloud Levels
  • Broken at 1,500' AGL
  • Few at 5,000' AGL
  • Overcast at 10,000' AGL
Temperature
17°C / 63°F
Dewpoint
13°C / 55°F
Humidity
77%
Altimeter
29.82" Hg
Pressure
1009.92 hPa